sensor_id;sensor_type;location;lat;lon;timestamp;pressure;altitude;pressure_sealevel;temperature;humidity
57572;BME280;44459;43.522;24.470;2022-11-24T00:01:20;99227.66;;;8.24;100.00
57572;BME280;44459;43.522;24.470;2022-11-24T00:04:00;99246.94;;;8.25;100.00
57572;BME280;44459;43.522;24.470;2022-11-24T00:06:27;99247.81;;;8.24;100.00
57572;BME280;44459;43.522;24.470;2022-11-24T00:08:53;99249.56;;;8.22;100.00
57572;BME280;44459;43.522;24.470;2022-11-24T00:11:21;99256.56;;;8.20;100.00
57572;BME280;44459;43.522;24.470;2022-11-24T00:13:47;99254.81;;;8.22;100.00
57572;BME280;44459;43.522;24.470;2022-11-24T00:16:15;99246.06;;;8.17;100.00
57572;BME280;44459;43.522;24.470;2022-11-24T00:18:42;99248.66;;;8.23;100.00
57572;BME280;44459;43.522;24.470;2022-11-24T00:21:08;99247.81;;;8.24;100.00
57572;BME280;44459;43.522;24.470;2022-11-24T00:23:34;99250.44;;;8.24;100.00
57572;BME280;44459;43.522;24.470;2022-11-24T00:26:34;99252.19;;;8.25;100.00
57572;BME280;44459;43.522;24.470;2022-11-24T00:29:04;99244.31;;;8.25;100.00
57572;BME280;44459;43.522;24.470;2022-11-24T00:31:34;99241.69;;;8.25;100.00
57572;BME280;44459;43.522;24.470;2022-11-24T00:34:06;99240.81;;;8.26;100.00
57572;BME280;44459;43.522;24.470;2022-11-24T00:36:33;99244.31;;;8.25;100.00
57572;BME280;44459;43.522;24.470;2022-11-24T00:39:02;99239.06;;;8.22;100.00
57572;BME280;44459;43.522;24.470;2022-11-24T00:41:28;99239.06;;;8.22;100.00
57572;BME280;44459;43.522;24.470;2022-11-24T00:43:54;99246.91;;;8.13;100.00
57572;BME280;44459;43.522;24.470;2022-11-24T00:46:21;99244.31;;;8.16;100.00
57572;BME280;44459;43.522;24.470;2022-11-24T00:48:47;99249.56;;;8.19;100.00
57572;BME280;44459;43.522;24.470;2022-11-24T00:51:14;99250.41;;;8.19;100.00
57572;BME280;44459;43.522;24.470;2022-11-24T00:53:40;99254.81;;;8.14;100.00
57572;BME280;44459;43.522;24.470;2022-11-24T00:56:07;99261.84;;;8.07;100.00
57572;BME280;44459;43.522;24.470;2022-11-24T00:58:33;99254.81;;;8.03;100.00
57572;BME280;44459;43.522;24.470;2022-11-24T01:01:07;99260.06;;;7.97;100.00
57572;BME280;44459;43.522;24.470;2022-11-24T01:03:33;99251.31;;;7.89;100.00
57572;BME280;44459;43.522;24.470;2022-11-24T01:06:18;99257.44;;;7.82;100.00
57572;BME280;44459;43.522;24.470;2022-11-24T01:08:45;99255.69;;;7.83;100.00
57572;BME280;44459;43.522;24.470;2022-11-24T01:11:22;99257.41;;;7.75;100.00
57572;BME280;44459;43.522;24.470;2022-11-24T01:13:52;99260.91;;;7.62;100.00
57572;BME280;44459;43.522;24.470;2022-11-24T01:16:23;99264.38;;;7.48;100.00
57572;BME280;44459;43.522;24.470;2022-11-24T01:18:50;99266.09;;;7.37;100.00
57572;BME280;44459;43.522;24.470;2022-11-24T01:21:16;99262.56;;;7.25;100.00
57572;BME280;44459;43.522;24.470;2022-11-24T01:23:42;99258.16;;;7.27;100.00
57572;BME280;44459;43.522;24.470;2022-11-24T01:26:09;99264.31;;;7.29;100.00
57572;BME280;44459;43.522;24.470;2022-11-24T01:28:35;99260.81;;;7.25;100.00
57572;BME280;44459;43.522;24.470;2022-11-24T01:31:04;99257.31;;;7.34;100.00
57572;BME280;44459;43.522;24.470;2022-11-24T01:33:30;99251.19;;;7.36;100.00
57572;BME280;44459;43.522;24.470;2022-11-24T01:35:56;99252.97;;;7.39;100.00
57572;BME280;44459;43.522;24.470;2022-11-24T01:38:22;99250.34;;;7.43;100.00
57572;BME280;44459;43.522;24.470;2022-11-24T01:40:48;99260.00;;;7.52;100.00
57572;BME280;44459;43.522;24.470;2022-11-24T01:43:19;99264.38;;;7.60;100.00
57572;BME280;44459;43.522;24.470;2022-11-24T01:45:45;99263.50;;;7.57;100.00
57572;BME280;44459;43.522;24.470;2022-11-24T01:48:24;99267.00;;;7.54;100.00
57572;BME280;44459;43.522;24.470;2022-11-24T01:51:23;99271.38;;;7.48;100.00
57572;BME280;44459;43.522;24.470;2022-11-24T01:53:51;99270.47;;;7.44;100.00
57572;BME280;44459;43.522;24.470;2022-11-24T01:56:18;99261.72;;;7.38;100.00
57572;BME280;44459;43.522;24.470;2022-11-24T01:58:45;99261.69;;;7.29;100.00
57572;BME280;44459;43.522;24.470;2022-11-24T02:01:12;99261.66;;;7.26;100.00
57572;BME280;44459;43.522;24.470;2022-11-24T02:03:39;99269.53;;;7.21;100.00
57572;BME280;44459;43.522;24.470;2022-11-24T02:06:13;99268.66;;;7.30;100.00
57572;BME280;44459;43.522;24.470;2022-11-24T02:08:59;99273.09;;;7.35;100.00
57572;BME280;44459;43.522;24.470;2022-11-24T02:11:32;99270.47;;;7.35;100.00
57572;BME280;44459;43.522;24.470;2022-11-24T02:13:57;99285.38;;;7.45;100.00
57572;BME280;44459;43.522;24.470;2022-11-24T02:16:24;99279.25;;;7.51;100.00
57572;BME280;44459;43.522;24.470;2022-11-24T02:18:50;99281.03;;;7.58;100.00
57572;BME280;44459;43.522;24.470;2022-11-24T02:21:16;99279.28;;;7.63;100.00
57572;BME280;44459;43.522;24.470;2022-11-24T02:28:58;99283.66;;;7.56;100.00
57572;BME280;44459;43.522;24.470;2022-11-24T02:31:23;99294.09;;;7.44;100.00
57572;BME280;44459;43.522;24.470;2022-11-24T02:33:49;99292.34;;;7.39;100.00
57572;BME280;44459;43.522;24.470;2022-11-24T02:36:15;99294.88;;;7.16;100.00
57572;BME280;44459;43.522;24.470;2022-11-24T02:38:40;99287.06;;;7.25;100.00
57572;BME280;44459;43.522;24.470;2022-11-24T02:41:09;99294.06;;;7.31;100.00
57572;BME280;44459;43.522;24.470;2022-11-24T02:43:51;99294.94;;;7.31;100.00
57572;BME280;44459;43.522;24.470;2022-11-24T02:46:17;99287.09;;;7.37;100.00
57572;BME280;44459;43.522;24.470;2022-11-24T02:48:42;99300.22;;;7.43;100.00
57572;BME280;44459;43.522;24.470;2022-11-24T02:51:08;99313.38;;;7.45;100.00
57572;BME280;44459;43.522;24.470;2022-11-24T02:53:33;99313.34;;;7.46;100.00
57572;BME280;44459;43.522;24.470;2022-11-24T02:55:59;99316.03;;;7.52;100.00
57572;BME280;44459;43.522;24.470;2022-11-24T02:58:24;99316.91;;;7.54;100.00
57572;BME280;44459;43.522;24.470;2022-11-24T03:00:50;99310.75;;;7.48;100.00
57572;BME280;44459;43.522;24.470;2022-11-24T03:03:19;99315.16;;;7.52;100.00
57572;BME280;44459;43.522;24.470;2022-11-24T03:05:44;99316.88;;;7.42;100.00
57572;BME280;44459;43.522;24.470;2022-11-24T03:08:10;99327.38;;;7.42;100.00
57572;BME280;44459;43.522;24.470;2022-11-24T03:10:35;99332.59;;;7.39;100.00
57572;BME280;44459;43.522;24.470;2022-11-24T03:13:01;99333.47;;;7.40;100.00
57572;BME280;44459;43.522;24.470;2022-11-24T03:15:26;99332.63;;;7.42;100.00
57572;BME280;44459;43.522;24.470;2022-11-24T03:17:53;99322.97;;;7.43;100.00
57572;BME280;44459;43.522;24.470;2022-11-24T03:20:19;99331.72;;;7.46;100.00
57572;BME280;44459;43.522;24.470;2022-11-24T03:22:45;99322.09;;;7.44;100.00
57572;BME280;44459;43.522;24.470;2022-11-24T03:25:10;99319.47;;;7.41;100.00
57572;BME280;44459;43.522;24.470;2022-11-24T03:27:35;99319.47;;;7.41;100.00
57572;BME280;44459;43.522;24.470;2022-11-24T03:30:01;99321.22;;;7.40;100.00
57572;BME280;44459;43.522;24.470;2022-11-24T03:32:26;99313.34;;;7.40;100.00
57572;BME280;44459;43.522;24.470;2022-11-24T03:34:52;99325.63;;;7.44;100.00
57572;BME280;44459;43.522;24.470;2022-11-24T03:37:17;99336.09;;;7.41;100.00
57572;BME280;44459;43.522;24.470;2022-11-24T03:39:42;99337.84;;;7.39;100.00
57572;BME280;44459;43.522;24.470;2022-11-24T03:42:08;99344.81;;;7.34;100.00
57572;BME280;44459;43.522;24.470;2022-11-24T03:44:33;99331.69;;;7.33;100.00
57572;BME280;44459;43.522;24.470;2022-11-24T03:46:59;99338.72;;;7.35;100.00
57572;BME280;44459;43.522;24.470;2022-11-24T03:49:24;99346.59;;;7.35;100.00
57572;BME280;44459;43.522;24.470;2022-11-24T03:51:50;99343.00;;;7.20;100.00
57572;BME280;44459;43.522;24.470;2022-11-24T03:54:15;99350.00;;;7.22;100.00
57572;BME280;44459;43.522;24.470;2022-11-24T03:56:40;99343.84;;;7.19;100.00
57572;BME280;44459;43.522;24.470;2022-11-24T03:59:06;99344.72;;;7.13;100.00
57572;BME280;44459;43.522;24.470;2022-11-24T04:01:33;99349.09;;;7.13;100.00
57572;BME280;44459;43.522;24.470;2022-11-24T04:03:58;99349.09;;;7.14;100.00
57572;BME280;44459;43.522;24.470;2022-11-24T04:06:23;99366.59;;;7.11;100.00
57572;BME280;44459;43.522;24.470;2022-11-24T04:08:49;99361.22;;;6.95;100.00
57572;BME280;44459;43.522;24.470;2022-11-24T04:11:14;99361.22;;;6.92;100.00
57572;BME280;44459;43.522;24.470;2022-11-24T04:14:00;99377.78;;;6.85;100.00
57572;BME280;44459;43.522;24.470;2022-11-24T04:16:25;99369.84;;;6.76;100.00
57572;BME280;44459;43.522;24.470;2022-11-24T04:18:52;99372.47;;;6.73;100.00
57572;BME280;44459;43.522;24.470;2022-11-24T04:21:18;99375.00;;;6.67;100.00
57572;BME280;44459;43.522;24.470;2022-11-24T04:23:43;99370.66;;;6.66;100.00
57572;BME280;44459;43.522;24.470;2022-11-24T04:26:09;99383.78;;;6.69;100.00
57572;BME280;44459;43.522;24.470;2022-11-24T04:28:34;99385.53;;;6.70;100.00
57572;BME280;44459;43.522;24.470;2022-11-24T04:31:04;99389.88;;;6.67;100.00
57572;BME280;44459;43.522;24.470;2022-11-24T04:33:30;99385.44;;;6.58;100.00
57572;BME280;44459;43.522;24.470;2022-11-24T04:35:55;99395.13;;;6.65;100.00
57572;BME280;44459;43.522;24.470;2022-11-24T04:38:20;99398.63;;;6.70;100.00
57572;BME280;44459;43.522;24.470;2022-11-24T04:40:46;99403.84;;;6.63;100.00
57572;BME280;44459;43.522;24.470;2022-11-24T04:43:11;99400.41;;;6.70;100.00
57572;BME280;44459;43.522;24.470;2022-11-24T04:45:37;99402.13;;;6.71;100.00
57572;BME280;44459;43.522;24.470;2022-11-24T04:48:03;99403.03;;;6.74;100.00
57572;BME280;44459;43.522;24.470;2022-11-24T04:50:28;99406.50;;;6.70;100.00
57572;BME280;44459;43.522;24.470;2022-11-24T04:52:54;99411.78;;;6.73;100.00
57572;BME280;44459;43.522;24.470;2022-11-24T04:55:19;99413.44;;;6.62;100.00
57572;BME280;44459;43.522;24.470;2022-11-24T04:57:45;99412.66;;;6.72;100.00
57572;BME280;44459;43.522;24.470;2022-11-24T05:00:11;99422.22;;;6.70;100.00
57572;BME280;44459;43.522;24.470;2022-11-24T05:02:36;99429.22;;;6.68;100.00
57572;BME280;44459;43.522;24.470;2022-11-24T05:05:03;99430.97;;;6.66;100.00
57572;BME280;44459;43.522;24.470;2022-11-24T05:07:28;99434.47;;;6.68;100.00
57572;BME280;44459;43.522;24.470;2022-11-24T05:09:54;99437.94;;;6.67;100.00
57572;BME280;44459;43.522;24.470;2022-11-24T05:12:38;99441.41;;;6.63;100.00
57572;BME280;44459;43.522;24.470;2022-11-24T05:15:04;99442.25;;;6.59;100.00
57572;BME280;44459;43.522;24.470;2022-11-24T05:17:38;99448.38;;;6.61;100.00
57572;BME280;44459;43.522;24.470;2022-11-24T05:20:05;99451.94;;;6.66;100.00
57572;BME280;44459;43.522;24.470;2022-11-24T05:22:31;99452.00;;;6.72;100.00
57572;BME280;44459;43.522;24.470;2022-11-24T05:24:57;99455.44;;;6.65;100.00
57572;BME280;44459;43.522;24.470;2022-11-24T05:27:22;99458.88;;;6.61;100.00
57572;BME280;44459;43.522;24.470;2022-11-24T05:29:48;99456.13;;;6.47;100.00
57572;BME280;44459;43.522;24.470;2022-11-24T05:32:13;99465.81;;;6.56;100.00
57572;BME280;44459;43.522;24.470;2022-11-24T05:34:39;99460.53;;;6.53;100.00
57572;BME280;44459;43.522;24.470;2022-11-24T05:37:05;99475.50;;;6.62;100.00
57572;BME280;44459;43.522;24.470;2022-11-24T05:39:34;99473.75;;;6.64;100.00
57572;BME280;44459;43.522;24.470;2022-11-24T05:42:02;99474.56;;;6.55;100.00
57572;BME280;44459;43.522;24.470;2022-11-24T05:44:48;99477.16;;;6.53;100.00
57572;BME280;44459;43.522;24.470;2022-11-24T05:47:13;99473.66;;;6.56;100.00
57572;BME280;44459;43.522;24.470;2022-11-24T05:49:38;99485.13;;;6.64;100.00
57572;BME280;44459;43.522;24.470;2022-11-24T05:52:04;99479.91;;;6.67;100.00
57572;BME280;44459;43.522;24.470;2022-11-24T05:54:29;99492.19;;;6.70;100.00
57572;BME280;44459;43.522;24.470;2022-11-24T05:56:55;99499.22;;;6.75;100.00
57572;BME280;44459;43.522;24.470;2022-11-24T05:59:20;99494.84;;;6.73;100.00
57572;BME280;44459;43.522;24.470;2022-11-24T06:01:46;99501.00;;;6.79;100.00
57572;BME280;44459;43.522;24.470;2022-11-24T06:04:11;99490.53;;;6.82;100.00
57572;BME280;44459;43.522;24.470;2022-11-24T06:06:37;99487.91;;;6.82;100.00
57572;BME280;44459;43.522;24.470;2022-11-24T06:09:02;99504.50;;;6.81;100.00
57572;BME280;44459;43.522;24.470;2022-11-24T06:11:29;99507.25;;;6.90;100.00
57572;BME280;44459;43.522;24.470;2022-11-24T06:13:54;99516.84;;;6.90;100.00
57572;BME280;44459;43.522;24.470;2022-11-24T06:16:20;99522.03;;;6.82;100.00
57572;BME280;44459;43.522;24.470;2022-11-24T06:18:45;99522.91;;;6.84;100.00
57572;BME280;44459;43.522;24.470;2022-11-24T06:21:10;99528.97;;;6.76;100.00
57572;BME280;44459;43.522;24.470;2022-11-24T06:23:36;99529.06;;;6.86;100.00
57572;BME280;44459;43.522;24.470;2022-11-24T06:26:02;99543.91;;;6.86;100.00
57572;BME280;44459;43.522;24.470;2022-11-24T06:28:27;99544.81;;;6.86;100.00
57572;BME280;44459;43.522;24.470;2022-11-24T06:30:53;99538.72;;;6.90;100.00
57572;BME280;44459;43.522;24.470;2022-11-24T06:33:18;99550.13;;;6.94;100.00
57572;BME280;44459;43.522;24.470;2022-11-24T06:35:44;99550.13;;;6.95;100.00
57572;BME280;44459;43.522;24.470;2022-11-24T06:38:10;99559.78;;;6.99;100.00
57572;BME280;44459;43.522;24.470;2022-11-24T06:40:35;99559.75;;;6.96;100.00
57572;BME280;44459;43.522;24.470;2022-11-24T06:43:01;99561.44;;;6.91;100.00
57572;BME280;44459;43.522;24.470;2022-11-24T06:45:26;99572.00;;;6.96;100.00
57572;BME280;44459;43.522;24.470;2022-11-24T06:47:53;99572.84;;;6.95;100.00
57572;BME280;44459;43.522;24.470;2022-11-24T06:50:18;99574.59;;;6.94;100.00
57572;BME280;44459;43.522;24.470;2022-11-24T06:52:44;99569.41;;;6.97;100.00
57572;BME280;44459;43.522;24.470;2022-11-24T06:55:09;99570.28;;;6.99;100.00
57572;BME280;44459;43.522;24.470;2022-11-24T06:57:34;99579.13;;;7.11;100.00
57572;BME280;44459;43.522;24.470;2022-11-24T07:00:01;99573.00;;;7.10;100.00
57572;BME280;44459;43.522;24.470;2022-11-24T07:02:26;99579.13;;;7.12;100.00
57572;BME280;44459;43.522;24.470;2022-11-24T07:04:51;99575.66;;;7.13;100.00
57572;BME280;44459;43.522;24.470;2022-11-24T07:07:17;99574.75;;;7.09;100.00
57572;BME280;44459;43.522;24.470;2022-11-24T07:09:42;99580.94;;;7.15;100.00
57572;BME280;44459;43.522;24.470;2022-11-24T07:12:08;99587.09;;;7.23;100.00
57572;BME280;44459;43.522;24.470;2022-11-24T07:14:33;99589.66;;;7.15;100.00
57572;BME280;44459;43.522;24.470;2022-11-24T07:16:58;99597.50;;;7.11;100.00
57572;BME280;44459;43.522;24.470;2022-11-24T07:19:26;99600.94;;;7.05;100.00
57572;BME280;44459;43.522;24.470;2022-11-24T07:21:52;99605.25;;;6.98;100.00
57572;BME280;44459;43.522;24.470;2022-11-24T07:24:17;99607.91;;;7.00;100.00
57572;BME280;44459;43.522;24.470;2022-11-24T07:26:43;99605.25;;;6.98;100.00
57572;BME280;44459;43.522;24.470;2022-11-24T07:29:08;99608.84;;;7.06;100.00
57572;BME280;44459;43.522;24.470;2022-11-24T07:31:34;99611.44;;;7.05;100.00
57572;BME280;44459;43.522;24.470;2022-11-24T07:33:59;99620.06;;;6.95;100.00
57572;BME280;44459;43.522;24.470;2022-11-24T07:36:25;99612.22;;;6.93;100.00
57572;BME280;44459;43.522;24.470;2022-11-24T07:38:50;99620.06;;;6.90;100.00
57572;BME280;44459;43.522;24.470;2022-11-24T07:41:17;99616.56;;;6.93;100.00
57572;BME280;44459;43.522;24.470;2022-11-24T07:43:44;99618.38;;;6.98;100.00
57572;BME280;44459;43.522;24.470;2022-11-24T07:46:14;99625.34;;;6.96;100.00
57572;BME280;44459;43.522;24.470;2022-11-24T07:48:40;99627.94;;;6.95;100.00
57572;BME280;44459;43.522;24.470;2022-11-24T07:51:06;99627.84;;;6.84;100.00
57572;BME280;44459;43.522;24.470;2022-11-24T07:53:32;99631.25;;;6.76;100.00
57572;BME280;44459;43.522;24.470;2022-11-24T07:56:00;99637.41;;;6.79;100.00
57572;BME280;44459;43.522;24.470;2022-11-24T07:58:30;99631.22;;;6.74;100.00
57572;BME280;44459;43.522;24.470;2022-11-24T08:00:56;99628.56;;;6.70;100.00
57572;BME280;44459;43.522;24.470;2022-11-24T08:03:22;99638.28;;;6.81;100.00
57572;BME280;44459;43.522;24.470;2022-11-24T08:05:55;99634.78;;;6.79;100.00
57572;BME280;44459;43.522;24.470;2022-11-24T08:08:21;99644.31;;;6.74;97.23
57572;BME280;44459;43.522;24.470;2022-11-24T08:10:47;99653.00;;;6.69;95.94
57572;BME280;44459;43.522;24.470;2022-11-24T08:13:13;99645.94;;;6.63;96.44
57572;BME280;44459;43.522;24.470;2022-11-24T08:15:38;99642.41;;;6.58;97.63
57572;BME280;44459;43.522;24.470;2022-11-24T08:18:04;99653.88;;;6.68;99.03
57572;BME280;44459;43.522;24.470;2022-11-24T08:20:29;99663.56;;;6.75;99.57
57572;BME280;44459;43.522;24.470;2022-11-24T08:22:58;99667.13;;;6.78;99.68
57572;BME280;44459;43.522;24.470;2022-11-24T08:25:27;99668.13;;;6.89;98.53
57572;BME280;44459;43.522;24.470;2022-11-24T08:28:01;99667.13;;;6.78;97.84
57572;BME280;44459;43.522;24.470;2022-11-24T08:30:27;99670.59;;;6.76;97.82
57572;BME280;44459;43.522;24.470;2022-11-24T08:32:53;99668.75;;;6.70;97.37
57572;BME280;44459;43.522;24.470;2022-11-24T08:35:19;99675.88;;;6.79;98.23
57572;BME280;44459;43.522;24.470;2022-11-24T08:37:44;99686.47;;;6.86;97.90
57572;BME280;44459;43.522;24.470;2022-11-24T08:40:10;99675.94;;;6.83;96.53
57572;BME280;44459;43.522;24.470;2022-11-24T08:42:36;99687.31;;;6.85;96.53
57572;BME280;44459;43.522;24.470;2022-11-24T08:45:02;99694.38;;;6.92;97.19
57572;BME280;44459;43.522;24.470;2022-11-24T08:47:28;99687.47;;;6.99;97.94
57572;BME280;44459;43.522;24.470;2022-11-24T08:49:53;99685.91;;;7.15;97.81
57572;BME280;44459;43.522;24.470;2022-11-24T08:52:18;99687.78;;;7.29;98.08
57572;BME280;44459;43.522;24.470;2022-11-24T08:54:44;99695.72;;;7.34;96.22
57572;BME280;44459;43.522;24.470;2022-11-24T08:57:10;99693.88;;;7.24;95.47
57572;BME280;44459;43.522;24.470;2022-11-24T08:59:35;99710.50;;;7.26;94.40
57572;BME280;44459;43.522;24.470;2022-11-24T09:02:01;99708.69;;;7.19;94.43
57572;BME280;44459;43.522;24.470;2022-11-24T09:04:26;99706.00;;;7.13;94.83
57572;BME280;44459;43.522;24.470;2022-11-24T09:06:52;99706.81;;;7.08;95.12
57572;BME280;44459;43.522;24.470;2022-11-24T09:09:17;99709.28;;;6.95;94.39
57572;BME280;44459;43.522;24.470;2022-11-24T09:11:43;99711.19;;;7.06;94.68
57572;BME280;44459;43.522;24.470;2022-11-24T09:14:08;99709.56;;;7.18;95.64
57572;BME280;44459;43.522;24.470;2022-11-24T09:16:34;99704.47;;;7.33;95.41
57572;BME280;44459;43.522;24.470;2022-11-24T09:19:03;99708.06;;;7.44;95.61
57572;BME280;44459;43.522;24.470;2022-11-24T09:21:29;99701.00;;;7.37;94.81
57572;BME280;44459;43.522;24.470;2022-11-24T09:23:55;99703.53;;;7.28;95.49
57572;BME280;44459;43.522;24.470;2022-11-24T09:26:26;99701.94;;;7.42;96.68
57572;BME280;44459;43.522;24.470;2022-11-24T09:28:53;99702.03;;;7.49;94.97
57572;BME280;44459;43.522;24.470;2022-11-24T09:31:21;99701.13;;;7.46;93.25
57572;BME280;44459;43.522;24.470;2022-11-24T09:33:47;99696.66;;;7.39;92.48
57572;BME280;44459;43.522;24.470;2022-11-24T09:36:13;99697.50;;;7.35;93.81
57572;BME280;44459;43.522;24.470;2022-11-24T09:38:39;99687.03;;;7.38;91.51
57572;BME280;44459;43.522;24.470;2022-11-24T09:49:17;99686.28;;;7.52;92.29
57572;BME280;44459;43.522;24.470;2022-11-24T09:51:47;99679.31;;;7.53;90.93
57572;BME280;44459;43.522;24.470;2022-11-24T09:54:20;99679.31;;;7.53;89.62
57572;BME280;44459;43.522;24.470;2022-11-24T09:56:49;99680.13;;;7.49;89.44
57572;BME280;44459;43.522;24.470;2022-11-24T09:59:19;99687.22;;;7.59;90.14
57572;BME280;44459;43.522;24.470;2022-11-24T10:01:46;99681.13;;;7.60;88.42
57572;BME280;44459;43.522;24.470;2022-11-24T10:04:17;99691.63;;;7.62;89.12
57572;BME280;44459;43.522;24.470;2022-11-24T10:11:59;99696.09;;;7.75;86.57
57572;BME280;44459;43.522;24.470;2022-11-24T10:14:48;99696.19;;;7.82;86.80
57572;BME280;44459;43.522;24.470;2022-11-24T10:28:15;99687.53;;;7.94;84.26
57572;BME280;44459;43.522;24.470;2022-11-24T10:30:41;99689.31;;;7.99;82.62
57572;BME280;44459;43.522;24.470;2022-11-24T10:40:53;99686.66;;;7.96;83.71
57572;BME280;44459;43.522;24.470;2022-11-24T10:43:21;99698.06;;;8.00;83.62
57572;BME280;44459;43.522;24.470;2022-11-24T10:45:47;99691.94;;;7.98;83.42
57572;BME280;44459;43.522;24.470;2022-11-24T10:48:18;99693.69;;;7.97;83.29
57572;BME280;44459;43.522;24.470;2022-11-24T10:50:45;99693.69;;;7.97;82.26
57572;BME280;44459;43.522;24.470;2022-11-24T10:53:29;99690.13;;;7.91;82.88
57572;BME280;44459;43.522;24.470;2022-11-24T10:55:56;99691.91;;;7.96;83.68
57572;BME280;44459;43.522;24.470;2022-11-24T10:58:25;99685.81;;;8.00;84.71
57572;BME280;44459;43.522;24.470;2022-11-24T11:00:52;99682.38;;;8.07;83.11
57572;BME280;44459;43.522;24.470;2022-11-24T11:03:23;99685.03;;;8.12;83.09
57572;BME280;44459;43.522;24.470;2022-11-24T11:06:11;99686.78;;;8.13;83.92
57572;BME280;44459;43.522;24.470;2022-11-24T11:08:37;99691.22;;;8.22;83.88
57572;BME280;44459;43.522;24.470;2022-11-24T11:13:37;99693.06;;;8.29;83.78
57572;BME280;44459;43.522;24.470;2022-11-24T11:16:22;99679.91;;;8.29;82.48
57572;BME280;44459;43.522;24.470;2022-11-24T11:18:48;99674.66;;;8.30;83.48
57572;BME280;44459;43.522;24.470;2022-11-24T11:21:27;99682.59;;;8.38;82.93
57572;BME280;44459;43.522;24.470;2022-11-24T11:23:53;99673.88;;;8.45;82.61
57572;BME280;44459;43.522;24.470;2022-11-24T11:28:58;99679.16;;;8.54;83.02
57572;BME280;44459;43.522;24.470;2022-11-24T11:31:25;99687.97;;;8.62;82.20
57572;BME280;44459;43.522;24.470;2022-11-24T11:36:27;99688.00;;;8.67;81.00
57572;BME280;44459;43.522;24.470;2022-11-24T11:38:56;99691.53;;;8.64;81.56
57572;BME280;44459;43.522;24.470;2022-11-24T11:41:28;99688.91;;;8.72;81.55
57572;BME280;44459;43.522;24.470;2022-11-24T11:44:14;99688.06;;;8.74;81.47
57572;BME280;44459;43.522;24.470;2022-11-24T11:46:46;99683.66;;;8.73;81.04
57572;BME280;44459;43.522;24.470;2022-11-24T11:49:12;99690.69;;;8.79;82.70
57572;BME280;44459;43.522;24.470;2022-11-24T11:54:33;99685.50;;;8.94;81.80
57572;BME280;44459;43.522;24.470;2022-11-24T11:57:10;99689.88;;;8.92;82.73
57572;BME280;44459;43.522;24.470;2022-11-24T12:04:46;99687.28;;;9.07;80.14
57572;BME280;44459;43.522;24.470;2022-11-24T12:17:47;99688.19;;;9.07;77.40
57572;BME280;44459;43.522;24.470;2022-11-24T12:23:30;99693.41;;;8.95;78.69
57572;BME280;44459;43.522;24.470;2022-11-24T12:35:10;99694.28;;;8.94;78.67
57572;BME280;44459;43.522;24.470;2022-11-24T12:37:51;99692.50;;;8.93;78.57
57572;BME280;44459;43.522;24.470;2022-11-24T12:43:32;99697.78;;;8.95;78.03
57572;BME280;44459;43.522;24.470;2022-11-24T12:48:42;99689.88;;;8.93;78.13
57572;BME280;44459;43.522;24.470;2022-11-24T12:51:18;99689.00;;;8.96;78.57
57572;BME280;44459;43.522;24.470;2022-11-24T12:53:44;99696.06;;;9.01;78.55
57572;BME280;44459;43.522;24.470;2022-11-24T12:56:12;99691.69;;;9.02;78.13
57572;BME280;44459;43.522;24.470;2022-11-24T12:58:50;99691.69;;;9.06;78.44
57572;BME280;44459;43.522;24.470;2022-11-24T13:01:39;99696.94;;;9.05;76.63
57572;BME280;44459;43.522;24.470;2022-11-24T13:04:28;99702.19;;;9.03;78.02
57572;BME280;44459;43.522;24.470;2022-11-24T13:07:08;99696.91;;;8.99;77.89
57572;BME280;44459;43.522;24.470;2022-11-24T13:09:35;99699.56;;;9.02;78.12
57572;BME280;44459;43.522;24.470;2022-11-24T13:12:15;99698.69;;;9.04;76.41
57572;BME280;44459;43.522;24.470;2022-11-24T13:14:48;99698.69;;;9.00;76.31
57572;BME280;44459;43.522;24.470;2022-11-24T13:17:28;99684.63;;;8.96;77.38
57572;BME280;44459;43.522;24.470;2022-11-24T13:20:21;99693.41;;;8.95;77.33
57572;BME280;44459;43.522;24.470;2022-11-24T13:22:58;99696.91;;;8.96;77.27
57572;BME280;44459;43.522;24.470;2022-11-24T13:25:26;99699.56;;;9.00;77.52
57572;BME280;44459;43.522;24.470;2022-11-24T13:27:56;99700.44;;;9.01;78.00
57572;BME280;44459;43.522;24.470;2022-11-24T13:35:36;99696.91;;;8.96;76.41
57572;BME280;44459;43.522;24.470;2022-11-24T13:38:02;99694.28;;;8.97;76.81
57572;BME280;44459;43.522;24.470;2022-11-24T13:53:34;99710.03;;;8.90;76.95
57572;BME280;44459;43.522;24.470;2022-11-24T13:56:27;99709.13;;;8.83;77.50
57572;BME280;44459;43.522;24.470;2022-11-24T13:58:55;99708.25;;;8.80;77.47
57572;BME280;44459;43.522;24.470;2022-11-24T14:01:29;99710.84;;;8.75;78.19
57572;BME280;44459;43.522;24.470;2022-11-24T14:04:15;99703.88;;;8.83;77.14
57572;BME280;44459;43.522;24.470;2022-11-24T14:14:34;99698.59;;;8.74;78.68
57572;BME280;44459;43.522;24.470;2022-11-24T14:19:37;99707.34;;;8.73;78.67
57572;BME280;44459;43.522;24.470;2022-11-24T14:22:02;99713.47;;;8.68;79.64
57572;BME280;44459;43.522;24.470;2022-11-24T14:24:32;99710.81;;;8.66;79.89
57572;BME280;44459;43.522;24.470;2022-11-24T14:26:58;99719.59;;;8.68;79.31
57572;BME280;44459;43.522;24.470;2022-11-24T14:29:25;99721.31;;;8.63;79.83
57572;BME280;44459;43.522;24.470;2022-11-24T14:32:02;99720.44;;;8.66;79.54
57572;BME280;44459;43.522;24.470;2022-11-24T14:34:30;99714.31;;;8.65;78.25
57572;BME280;44459;43.522;24.470;2022-11-24T14:36:56;99710.81;;;8.69;77.49
57572;BME280;44459;43.522;24.470;2022-11-24T14:39:24;99709.06;;;8.68;77.78
57572;BME280;44459;43.522;24.470;2022-11-24T14:42:21;99721.31;;;8.65;78.27
57572;BME280;44459;43.522;24.470;2022-11-24T14:49:47;99712.44;;;8.43;79.82
57572;BME280;44459;43.522;24.470;2022-11-24T14:52:15;99710.66;;;8.39;79.60
57572;BME280;44459;43.522;24.470;2022-11-24T14:54:46;99712.34;;;8.31;80.06